Time;durP1;ratioP1;P1;durP2;ratioP2;P2;SDS_P1;SDS_P2;PMS_P1;PMS_P2;Temp;Humidity;BMP_temperature;BMP_pressure;BME280_temperature;BME280_humidity;BME280_pressure;Samples;Min_cycle;Max_cycle;Signal;HPM_P1;HPM_P2
2021/12/10 00:01:49;;;;;;;;;8.25;5.00;;;;;5.51;100.00;98624.69;5076608;27;45492;-64
2021/12/10 00:04:16;;;;;;;;;6.25;6.25;;;;;5.52;100.00;98617.72;5065678;28;45436;-65
2021/12/10 00:06:50;;;;;;;;;7.00;4.25;;;;;5.49;100.00;98597.84;5075954;27;46125;-63
2021/12/10 00:09:22;;;;;;;;;6.00;6.00;;;;;5.52;100.00;98576.00;5075783;27;45480;-69
2021/12/10 00:11:51;;;;;;;;;6.75;5.25;;;;;5.52;100.00;98561.16;5080102;27;45430;-64
2021/12/10 00:14:18;;;;;;;;;4.00;4.00;;;;;5.52;100.00;98558.56;5076041;27;45504;-64
2021/12/10 00:16:44;;;;;;;;;4.75;4.25;;;;;5.50;100.00;98536.09;5075562;27;46329;-63
2021/12/10 00:19:25;;;;;;;;;4.00;3.00;;;;;5.48;100.00;98523.13;5071698;28;45424;-63
2021/12/10 00:21:52;;;;;;;;;3.00;3.00;;;;;5.47;100.00;98515.41;5075521;27;45416;-63
2021/12/10 00:24:18;;;;;;;;;4.00;2.25;;;;;5.42;100.00;98500.00;5075311;27;45555;-64
2021/12/10 00:26:45;;;;;;;;;3.50;2.25;;;;;5.41;100.00;98499.16;5088925;27;45481;-66
2021/12/10 00:29:12;;;;;;;;;3.50;2.00;;;;;5.37;100.00;98474.19;5095450;27;45398;-65
2021/12/10 00:31:48;;;;;;;;;5.00;2.00;;;;;5.32;100.00;98449.25;5094944;27;45238;-65
2021/12/10 00:34:38;;;;;;;;;1.50;1.50;;;;;5.37;100.00;98448.09;5096226;27;45573;-65
2021/12/10 00:37:07;;;;;;;;;7.50;4.00;;;;;5.38;100.00;98436.75;5079324;27;45577;-64
2021/12/10 00:39:38;;;;;;;;;1.50;1.50;;;;;5.37;100.00;98416.81;5074405;28;45406;-63
2021/12/10 00:42:07;;;;;;;;;2.00;2.00;;;;;5.12;100.00;98380.78;5075761;27;45440;-64
2021/12/10 00:44:33;;;;;;;;;5.00;1.25;;;;;5.34;100.00;98443.06;5079953;27;45751;-66
2021/12/10 00:46:58;;;;;;;;;1.25;1.25;;;;;5.29;100.00;98441.59;5074681;28;46185;-65
2021/12/10 00:49:24;;;;;;;;;2.00;2.00;;;;;5.29;100.00;98444.22;5074253;27;45364;-63
2021/12/10 00:51:49;;;;;;;;;3.00;1.00;;;;;5.28;100.00;98424.28;5074398;27;45819;-65
2021/12/10 00:54:15;;;;;;;;;2.00;2.00;;;;;5.25;100.00;98414.84;5072999;27;45759;-65
2021/12/10 00:56:41;;;;;;;;;3.75;3.75;;;;;5.26;100.00;98404.34;5076026;27;45348;-68
2021/12/10 00:59:09;;;;;;;;;1.00;1.00;;;;;5.26;100.00;98382.63;5083056;27;45526;-63
2021/12/10 01:01:35;;;;;;;;;2.00;2.00;;;;;5.26;100.00;98391.31;5074828;27;45686;-65
2021/12/10 01:04:06;;;;;;;;;3.50;2.75;;;;;5.21;100.00;98367.25;5074579;27;45546;-66
2021/12/10 01:06:31;;;;;;;;;1.50;1.50;;;;;5.21;100.00;98345.53;5074363;27;45461;-67
2021/12/10 01:09:05;;;;;;;;;2.50;1.50;;;;;5.26;100.00;98346.13;5075119;28;45433;-66
2021/12/10 01:11:35;;;;;;;;;1.25;1.25;;;;;5.24;100.00;98335.81;5074755;27;45442;-65
2021/12/10 01:14:16;;;;;;;;;2.00;1.00;;;;;5.23;100.00;98328.06;5073616;28;45504;-66
2021/12/10 01:25:09;;;;;;;;;0.00;0.00;;;;;5.13;100.00;98301.69;5074667;27;45463;-65
2021/12/10 01:27:40;;;;;;;;;2.00;2.00;;;;;5.12;100.00;98297.38;5072638;28;46923;-67
2021/12/10 01:30:20;;;;;;;;;0.00;0.00;;;;;5.10;100.00;98292.25;5074448;27;45312;-69
2021/12/10 01:32:51;;;;;;;;;0.50;0.00;;;;;5.09;100.00;98303.59;5073722;27;45447;-66
2021/12/10 01:35:21;;;;;;;;;0.00;0.00;;;;;5.12;100.00;98287.78;5074709;27;45504;-69
2021/12/10 01:37:49;;;;;;;;;3.00;1.00;;;;;5.11;100.00;98283.50;5075259;27;45307;-64
2021/12/10 01:40:14;;;;;;;;;1.00;1.00;;;;;5.17;100.00;98271.06;5075496;27;45276;-68
2021/12/10 01:42:47;;;;;;;;;1.00;1.00;;;;;5.14;100.00;98263.41;5078128;27;45157;-67
2021/12/10 01:45:23;;;;;;;;;1.00;1.00;;;;;5.14;100.00;98259.06;5082270;27;45218;-68
2021/12/10 01:48:00;;;;;;;;;2.00;2.00;;;;;5.20;100.00;98257.84;5078703;28;46310;-68
2021/12/10 01:50:28;;;;;;;;;2.75;2.00;;;;;5.21;100.00;98257.78;5082073;27;45298;-69
2021/12/10 01:52:57;;;;;;;;;3.25;1.75;;;;;5.23;100.00;98244.66;5082105;27;45375;-64
2021/12/10 01:55:26;;;;;;;;;3.25;2.75;;;;;5.19;100.00;98240.53;5080194;27;45621;-64
2021/12/10 01:57:53;;;;;;;;;3.00;2.00;;;;;5.22;100.00;98236.00;5079082;27;45614;-66
2021/12/10 02:00:24;;;;;;;;;2.00;2.00;;;;;5.15;100.00;98213.81;5078773;27;45369;-67
2021/12/10 02:02:50;;;;;;;;;3.75;2.50;;;;;5.21;100.00;98216.09;5077508;28;45435;-67
2021/12/10 02:05:17;;;;;;;;;2.25;2.25;;;;;5.19;100.00;98227.50;5079222;27;45202;-68
2021/12/10 02:07:45;;;;;;;;;2.75;2.75;;;;;5.14;100.00;98206.94;5078506;27;46215;-62
2021/12/10 02:10:14;;;;;;;;;4.00;3.00;;;;;5.11;100.00;98217.53;5078663;27;45432;-69
2021/12/10 02:12:39;;;;;;;;;3.75;3.75;;;;;5.19;100.00;98232.72;5078499;27;45232;-63
2021/12/10 02:15:06;;;;;;;;;3.00;3.00;;;;;5.20;100.00;98216.16;5078951;27;45570;-69
2021/12/10 02:17:38;;;;;;;;;2.00;2.00;;;;;5.21;100.00;98210.88;5078409;27;45244;-68
2021/12/10 02:20:11;;;;;;;;;1.75;1.50;;;;;5.22;100.00;98220.38;5078653;27;45204;-64
2021/12/10 02:22:37;;;;;;;;;3.75;3.00;;;;;5.26;100.00;98227.09;5079098;27;45239;-68
2021/12/10 02:25:06;;;;;;;;;2.00;2.00;;;;;5.27;100.00;98201.84;5077469;27;45483;-67
2021/12/10 02:27:32;;;;;;;;;4.00;4.00;;;;;5.25;100.00;98178.50;5082293;27;45609;-69
2021/12/10 02:29:58;;;;;;;;;3.00;3.00;;;;;5.36;100.00;98183.09;5079245;27;45480;-68
2021/12/10 02:32:25;;;;;;;;;4.00;3.00;;;;;5.38;100.00;98189.06;5078497;27;45357;-65
2021/12/10 02:34:52;;;;;;;;;2.75;2.00;;;;;5.39;100.00;98177.72;5078564;27;45658;-68
2021/12/10 02:37:18;;;;;;;;;2.00;2.00;;;;;5.44;100.00;98189.66;5077780;27;46203;-65
2021/12/10 02:39:43;;;;;;;;;1.00;1.00;;;;;5.43;100.00;98195.78;5078110;27;45336;-64
2021/12/10 02:42:09;;;;;;;;;1.25;1.25;;;;;5.43;100.00;98201.00;5078585;27;45974;-67
2021/12/10 02:44:34;;;;;;;;;4.00;3.00;;;;;5.42;100.00;98184.50;5078259;27;45282;-65
2021/12/10 02:47:00;;;;;;;;;2.00;2.00;;;;;5.48;100.00;98175.50;5078021;27;45364;-69
2021/12/10 02:49:27;;;;;;;;;4.00;2.00;;;;;5.51;100.00;98165.72;5076697;27;45421;-61
2021/12/10 02:51:53;;;;;;;;;2.00;2.00;;;;;5.54;100.00;98162.94;5078293;27;45378;-61
2021/12/10 02:54:23;;;;;;;;;2.00;1.00;;;;;5.59;100.00;98156.59;5079042;27;45264;-59
2021/12/10 02:56:51;;;;;;;;;2.75;2.00;;;;;5.58;100.00;98145.34;5079894;27;46215;-65
2021/12/10 02:59:16;;;;;;;;;3.00;2.00;;;;;5.63;100.00;98145.06;5077709;27;45390;-61
2021/12/10 03:01:53;;;;;;;;;2.00;2.00;;;;;5.61;100.00;98137.34;5077546;27;45293;-64
2021/12/10 03:04:18;;;;;;;;;0.75;0.75;;;;;5.65;100.00;98141.44;5077801;27;45329;-63
2021/12/10 03:06:49;;;;;;;;;1.00;1.00;;;;;5.66;100.00;98145.72;5077073;27;46120;-65
2021/12/10 03:09:16;;;;;;;;;1.00;1.00;;;;;5.67;100.00;98157.00;5077395;27;45271;-65
2021/12/10 03:11:46;;;;;;;;;1.00;1.00;;;;;5.65;100.00;98149.28;5077694;27;45653;-61
2021/12/10 03:14:13;;;;;;;;;1.00;1.00;;;;;5.73;100.00;98142.75;5078032;27;45476;-66
2021/12/10 03:16:41;;;;;;;;;1.00;1.00;;;;;5.77;100.00;98141.66;5083501;27;46366;-67
2021/12/10 03:19:06;;;;;;;;;2.00;2.00;;;;;5.74;100.00;98119.19;5077614;27;45363;-67
2021/12/10 03:21:34;;;;;;;;;2.25;1.25;;;;;5.83;100.00;98144.75;5077565;27;45316;-67
2021/12/10 03:24:00;;;;;;;;;3.00;1.00;;;;;5.84;100.00;98153.41;5077477;27;45387;-66
2021/12/10 03:26:26;;;;;;;;;1.25;1.25;;;;;5.85;100.00;98140.28;5077033;28;45412;-66
2021/12/10 03:28:53;;;;;;;;;2.00;2.00;;;;;5.88;100.00;98144.44;5077080;27;45353;-66
2021/12/10 03:31:22;;;;;;;;;2.25;2.25;;;;;5.89;100.00;98138.31;5077578;28;45343;-66
2021/12/10 03:33:47;;;;;;;;;1.00;1.00;;;;;5.92;100.00;98140.72;5077221;27;45600;-66
2021/12/10 03:36:15;;;;;;;;;12.00;11.00;;;;;5.93;100.00;98145.00;5077134;27;46106;-59
2021/12/10 03:38:42;;;;;;;;;4.00;2.00;;;;;5.96;100.00;98142.22;5077333;27;45273;-66
2021/12/10 03:41:10;;;;;;;;;3.00;3.00;;;;;6.00;100.00;98153.31;5076490;28;45369;-67
2021/12/10 03:43:37;;;;;;;;;2.00;2.00;;;;;6.03;100.00;98147.94;5078944;27;45485;-67
2021/12/10 03:46:03;;;;;;;;;5.50;4.00;;;;;6.07;100.00;98151.19;5078511;28;46317;-64
2021/12/10 03:48:37;;;;;;;;;4.00;3.00;;;;;6.10;100.00;98149.25;5077260;27;45350;-66
2021/12/10 03:51:07;;;;;;;;;1.00;1.00;;;;;6.14;100.00;98158.56;5078781;27;45544;-65
2021/12/10 03:53:33;;;;;;;;;1.25;1.25;;;;;6.09;100.00;98142.34;5078173;27;45250;-64
2021/12/10 03:56:05;;;;;;;;;1.75;1.00;;;;;6.22;100.00;98152.03;5081396;27;45399;-64
2021/12/10 03:58:30;;;;;;;;;1.50;1.00;;;;;6.27;100.00;98150.00;5083905;27;45376;-65
2021/12/10 04:00:57;;;;;;;;;2.00;1.25;;;;;6.33;100.00;98151.38;5077601;27;45255;-63
2021/12/10 04:03:27;;;;;;;;;1.50;1.50;;;;;6.37;100.00;98160.72;5079950;27;45612;-66
2021/12/10 04:05:54;;;;;;;;;2.00;2.00;;;;;6.36;100.00;98143.34;5075719;27;46081;-69
2021/12/10 04:08:19;;;;;;;;;1.00;1.00;;;;;6.49;100.00;98159.94;5077012;27;45353;-69
2021/12/10 04:10:46;;;;;;;;;3.25;2.00;;;;;6.54;100.00;98157.03;5076618;27;45322;-66
2021/12/10 04:13:12;;;;;;;;;2.00;2.00;;;;;6.60;100.00;98161.88;5077381;27;45480;-68
2021/12/10 04:15:39;;;;;;;;;2.75;1.00;;;;;6.67;100.00;98162.34;5077769;27;46261;-64
2021/12/10 04:18:08;;;;;;;;;2.75;2.00;;;;;6.73;100.00;98154.13;5078951;27;45376;-67
2021/12/10 04:20:34;;;;;;;;;2.00;2.00;;;;;6.77;100.00;98167.81;5076688;27;45334;-60
2021/12/10 04:23:06;;;;;;;;;4.00;2.75;;;;;6.84;100.00;98156.88;5058418;28;45795;-67
2021/12/10 04:25:32;;;;;;;;;3.50;2.25;;;;;6.85;100.00;98150.72;5075064;28;45469;-69
2021/12/10 04:28:01;;;;;;;;;2.00;2.00;;;;;6.91;100.00;98164.34;5076347;27;45415;-69
2021/12/10 04:30:35;;;;;;;;;2.00;2.00;;;;;6.93;100.00;98152.00;5076251;27;45337;-65
2021/12/10 04:33:01;;;;;;;;;5.00;3.00;;;;;7.03;100.00;98170.56;5076345;27;45471;-64
2021/12/10 04:35:26;;;;;;;;;5.75;2.00;;;;;7.05;100.00;98161.66;5076045;27;46024;-66
2021/12/10 04:37:51;;;;;;;;;8.25;2.00;;;;;7.14;100.00;98171.53;5076141;27;45348;-62
2021/12/10 04:40:21;;;;;;;;;5.00;3.25;;;;;7.19;100.00;98167.78;5076116;27;45609;-65
2021/12/10 04:42:46;;;;;;;;;5.25;2.00;;;;;7.24;100.00;98163.09;5076401;27;45603;-61
2021/12/10 04:45:14;;;;;;;;;5.50;3.00;;;;;7.28;100.00;98165.41;5074910;27;48855;-59
2021/12/10 04:47:40;;;;;;;;;3.75;3.00;;;;;7.28;100.00;98167.16;5076515;28;45336;-62
2021/12/10 04:50:08;;;;;;;;;3.00;1.00;;;;;7.34;100.00;98185.06;5076433;27;45478;-61
2021/12/10 04:52:34;;;;;;;;;3.25;2.00;;;;;7.35;100.00;98180.69;5075958;27;45254;-62
2021/12/10 04:55:00;;;;;;;;;6.50;5.00;;;;;7.35;100.00;98178.91;5074106;28;46416;-62
2021/12/10 04:57:26;;;;;;;;;3.75;3.00;;;;;7.37;100.00;98179.66;5075849;27;45258;-61
2021/12/10 04:59:52;;;;;;;;;5.25;3.00;;;;;7.43;100.00;98171.41;5075628;27;45313;-67
2021/12/10 05:02:17;;;;;;;;;5.00;2.50;;;;;7.43;100.00;98170.56;5075981;27;45482;-63
2021/12/10 05:04:44;;;;;;;;;4.00;2.75;;;;;7.47;100.00;98161.56;5075846;27;46051;-67
2021/12/10 05:07:13;;;;;;;;;2.00;2.00;;;;;7.56;100.00;98171.44;5091210;27;45948;-67
2021/12/10 05:09:39;;;;;;;;;4.75;3.00;;;;;7.59;100.00;98178.25;5075976;27;45210;-65
2021/12/10 05:12:05;;;;;;;;;5.00;3.00;;;;;7.60;100.00;98180.75;5075783;27;45280;-69
2021/12/10 05:14:32;;;;;;;;;4.00;4.00;;;;;7.64;100.00;98189.25;5074170;28;45367;-67
2021/12/10 05:17:03;;;;;;;;;5.50;2.00;;;;;7.66;100.00;98178.66;5076204;27;45452;-68
2021/12/10 05:19:29;;;;;;;;;4.25;3.00;;;;;7.67;100.00;98189.03;5079398;27;45301;-67
2021/12/10 05:21:55;;;;;;;;;5.75;3.75;;;;;7.67;100.00;98203.88;5079685;27;45259;-69
2021/12/10 05:24:21;;;;;;;;;11.00;4.00;;;;;7.66;100.00;98218.75;5082318;27;46133;-69
2021/12/10 05:26:47;;;;;;;;;5.75;3.00;;;;;7.67;100.00;98206.50;5082478;27;45408;-68
2021/12/10 05:29:13;;;;;;;;;6.50;2.75;;;;;7.68;100.00;98216.88;5079257;28;45338;-64
2021/12/10 05:31:43;;;;;;;;;5.00;3.00;;;;;7.69;100.00;98215.94;5079274;28;45592;-65
2021/12/10 05:34:08;;;;;;;;;5.00;4.00;;;;;7.70;100.00;98232.47;5082886;27;46202;-67
2021/12/10 05:36:34;;;;;;;;;7.25;2.75;;;;;7.59;100.00;98212.25;5079242;27;45305;-68
2021/12/10 05:38:59;;;;;;;;;4.25;3.25;;;;;7.60;100.00;98240.94;5077679;28;45391;-67
2021/12/10 05:41:25;;;;;;;;;6.75;3.00;;;;;7.55;100.00;98242.19;5079374;27;45521;-65
2021/12/10 05:43:50;;;;;;;;;3.00;3.00;;;;;7.46;100.00;98243.59;5079332;27;45253;-59
2021/12/10 05:46:17;;;;;;;;;3.75;1.25;;;;;7.48;100.00;98246.13;5081941;27;45157;-62
2021/12/10 05:48:43;;;;;;;;;10.50;1.00;;;;;7.42;100.00;98249.97;5080256;28;45357;-65
2021/12/10 05:51:10;;;;;;;;;1.50;0.00;;;;;7.39;100.00;98274.53;5080495;27;45358;-65
2021/12/10 05:53:36;;;;;;;;;4.00;2.25;;;;;7.36;100.00;98266.88;5079465;27;47063;-66
2021/12/10 05:56:01;;;;;;;;;3.00;2.00;;;;;7.34;100.00;98275.78;5078900;27;45639;-63
2021/12/10 05:58:27;;;;;;;;;5.00;1.00;;;;;7.27;100.00;98268.34;5079114;27;45353;-64
2021/12/10 06:01:03;;;;;;;;;4.50;1.75;;;;;7.27;100.00;98281.41;5079135;28;45280;-65
2021/12/10 06:03:30;;;;;;;;;2.00;2.00;;;;;7.25;100.00;98282.44;5077859;27;48091;-68
2021/12/10 06:05:56;;;;;;;;;4.50;3.00;;;;;7.20;100.00;98289.72;5079060;27;45307;-66
2021/12/10 06:08:23;;;;;;;;;2.75;2.75;;;;;7.23;100.00;98285.16;5078697;27;45211;-64
2021/12/10 06:10:49;;;;;;;;;4.00;3.25;;;;;7.21;100.00;98287.03;5079584;27;45461;-67
2021/12/10 06:13:15;;;;;;;;;7.75;2.00;;;;;7.21;100.00;98292.25;5077833;27;48284;-65
2021/12/10 06:15:40;;;;;;;;;8.00;4.25;;;;;7.18;100.00;98302.91;5078048;28;45455;-65
2021/12/10 06:18:07;;;;;;;;;4.25;3.00;;;;;7.19;100.00;98308.97;5079190;27;45313;-67
2021/12/10 06:20:38;;;;;;;;;2.50;2.00;;;;;7.17;100.00;98309.06;5084591;27;45415;-64
2021/12/10 06:23:05;;;;;;;;;5.00;2.75;;;;;7.18;100.00;98312.50;5078206;27;45312;-64
2021/12/10 06:25:31;;;;;;;;;4.75;2.00;;;;;7.18;100.00;98309.91;5078121;27;45415;-65
2021/12/10 06:27:57;;;;;;;;;3.25;2.50;;;;;7.11;100.00;98306.84;5078344;27;45445;-65
2021/12/10 06:30:29;;;;;;;;;3.50;1.50;;;;;7.18;100.00;98321.22;5077368;27;45561;-62
2021/12/10 06:32:56;;;;;;;;;1.00;1.00;;;;;7.18;100.00;98313.38;5078193;27;46162;-61
2021/12/10 06:35:24;;;;;;;;;8.25;2.75;;;;;7.17;100.00;98324.75;5078163;27;45639;-63
2021/12/10 06:37:51;;;;;;;;;4.00;4.00;;;;;7.19;100.00;98329.88;5079932;27;45385;-65
2021/12/10 06:40:20;;;;;;;;;4.75;2.75;;;;;7.20;100.00;98337.66;5080140;27;45571;-63
2021/12/10 06:42:46;;;;;;;;;4.25;1.75;;;;;7.21;100.00;98334.09;5078184;27;45347;-65
2021/12/10 06:45:15;;;;;;;;;4.00;2.00;;;;;7.23;100.00;98347.06;5078942;27;45409;-62
2021/12/10 06:47:44;;;;;;;;;5.00;2.50;;;;;7.23;100.00;98344.44;5078252;27;45373;-61
2021/12/10 06:50:10;;;;;;;;;3.75;1.25;;;;;7.24;100.00;98353.97;5078123;27;45615;-63
2021/12/10 06:52:36;;;;;;;;;1.25;1.25;;;;;7.20;100.00;98352.47;5078802;27;46172;-62
2021/12/10 06:55:02;;;;;;;;;3.75;2.00;;;;;7.21;100.00;98357.63;5080744;27;45335;-60
2021/12/10 06:57:27;;;;;;;;;2.75;1.50;;;;;7.16;100.00;98368.34;5059323;28;45312;-68
2021/12/10 06:59:53;;;;;;;;;3.50;3.00;;;;;7.15;100.00;98371.91;5077897;27;45241;-62
2021/12/10 07:02:19;;;;;;;;;3.50;3.00;;;;;7.08;100.00;98385.47;5077566;28;46239;-78
2021/12/10 07:04:45;;;;;;;;;4.00;2.00;;;;;7.10;100.00;98415.78;5079226;27;45348;-76
2021/12/10 07:07:11;;;;;;;;;2.00;2.00;;;;;6.97;100.00;98392.19;5081694;27;45252;-73
2021/12/10 07:09:38;;;;;;;;;5.00;2.00;;;;;6.95;100.00;98411.50;5078003;27;45556;-76
2021/12/10 07:12:07;;;;;;;;;3.00;1.00;;;;;6.58;100.00;98386.63;5077169;27;46162;-74
2021/12/10 07:14:32;;;;;;;;;2.50;2.50;;;;;6.70;100.00;98423.41;5077580;27;45270;-73
2021/12/10 07:16:58;;;;;;;;;4.50;3.75;;;;;6.65;100.00;98433.28;5077338;27;45228;-74
2021/12/10 07:19:26;;;;;;;;;5.00;2.00;;;;;6.58;100.00;98448.47;5077564;27;45611;-73
2021/12/10 07:21:52;;;;;;;;;4.25;3.00;;;;;6.49;100.00;98449.88;5077387;27;46288;-74
2021/12/10 07:24:19;;;;;;;;;3.00;3.00;;;;;6.36;100.00;98459.31;5077229;27;45360;-74
2021/12/10 07:26:46;;;;;;;;;3.00;3.00;;;;;6.32;100.00;98465.63;5077275;27;45310;-77
2021/12/10 07:29:12;;;;;;;;;6.00;3.00;;;;;6.27;100.00;98471.94;5076949;27;45441;-77
2021/12/10 07:31:39;;;;;;;;;2.00;2.00;;;;;6.23;100.00;98477.44;5076720;28;46135;-70
2021/12/10 07:34:05;;;;;;;;;1.50;1.00;;;;;6.18;100.00;98490.75;5077296;28;45245;-76
2021/12/10 07:36:31;;;;;;;;;3.00;2.00;;;;;6.12;100.00;98498.91;5078539;27;45277;-77
2021/12/10 07:38:57;;;;;;;;;3.25;0.00;;;;;6.06;100.00;98497.50;5078210;28;45280;-76
2021/12/10 07:41:23;;;;;;;;;1.00;1.00;;;;;5.80;100.00;98455.34;5079058;27;46224;-74
2021/12/10 07:43:49;;;;;;;;;1.25;1.25;;;;;5.99;100.00;98523.06;5080674;27;45365;-65
2021/12/10 07:46:15;;;;;;;;;2.00;1.25;;;;;5.92;100.00;98515.66;5078711;28;45563;-71
2021/12/10 07:48:43;;;;;;;;;2.75;1.00;;;;;5.90;100.00;98525.34;5078061;27;45480;-65
2021/12/10 07:51:17;;;;;;;;;1.00;1.00;;;;;5.82;100.00;98533.56;5077893;27;45306;-68
2021/12/10 07:53:44;;;;;;;;;1.50;1.50;;;;;5.55;100.00;98498.41;5082148;27;45377;-72
2021/12/10 07:56:12;;;;;;;;;4.00;1.00;;;;;5.73;100.00;98540.09;5081428;27;45299;-70
2021/12/10 07:58:40;;;;;;;;;1.50;1.00;;;;;5.65;100.00;98537.91;5077393;27;45506;-65
2021/12/10 08:01:09;;;;;;;;;1.25;1.00;;;;;5.63;100.00;98541.50;5078380;27;46108;-67
2021/12/10 08:03:35;;;;;;;;;1.25;1.25;;;;;5.61;100.00;98544.22;5076385;28;45475;-69
2021/12/10 08:06:00;;;;;;;;;1.25;1.25;;;;;5.60;100.00;98546.88;5075971;27;45400;-67
2021/12/10 08:08:26;;;;;;;;;1.25;1.00;;;;;5.63;100.00;98558.03;5077159;27;45239;-69
2021/12/10 08:10:51;;;;;;;;;3.00;1.00;;;;;5.66;100.00;98568.28;5076453;27;46125;-61
2021/12/10 08:13:22;;;;;;;;;1.00;1.00;;;;;5.41;100.00;98512.19;5075766;28;45728;-67
2021/12/10 08:15:51;;;;;;;;;0.50;0.50;;;;;5.70;100.00;98575.03;5075620;27;45503;-63
2021/12/10 08:18:16;;;;;;;;;1.75;1.00;;;;;5.75;100.00;98577.38;5075803;27;45557;-64
2021/12/10 08:20:42;;;;;;;;;0.50;0.50;;;;;5.76;100.00;98583.47;5076177;27;45867;-61
2021/12/10 08:23:08;;;;;;;;;4.00;1.75;;;;;5.82;100.00;98607.44;5094009;27;45418;-61
2021/12/10 08:25:35;;;;;;;;;2.25;1.00;;;;;5.89;100.00;98594.09;5076896;27;45316;-62
2021/12/10 08:28:01;;;;;;;;;4.00;1.00;;;;;5.92;100.00;98609.59;5075550;27;45405;-61
2021/12/10 08:30:27;;;;;;;;;2.00;1.25;;;;;5.94;100.00;98619.00;5075985;27;46313;-62
2021/12/10 08:32:55;;;;;;;;;0.25;0.25;;;;;6.02;100.00;98623.03;5075545;27;45183;-65
2021/12/10 08:35:26;;;;;;;;;2.25;1.00;;;;;6.06;100.00;98630.63;5069651;28;45435;-61
2021/12/10 08:37:53;;;;;;;;;3.00;1.00;;;;;6.12;100.00;98634.66;5081767;27;45284;-68
2021/12/10 08:40:24;;;;;;;;;4.00;0.75;;;;;6.14;100.00;98638.88;5076638;27;45674;-68
2021/12/10 08:42:52;;;;;;;;;0.75;0.50;;;;;6.18;100.00;98642.16;5076051;27;45366;-60
2021/12/10 08:45:20;;;;;;;;;1.50;1.00;;;;;6.21;100.00;98651.59;5076073;27;45265;-63
2021/12/10 08:47:50;;;;;;;;;1.00;1.00;;;;;6.24;100.00;98665.34;5076013;27;45492;-62
2021/12/10 08:50:18;;;;;;;;;1.25;1.25;;;;;6.26;100.00;98660.03;5075995;27;46040;-58
2021/12/10 08:52:44;;;;;;;;;1.00;1.00;;;;;6.28;99.49;98666.84;5074442;27;45286;-62
2021/12/10 08:55:11;;;;;;;;;1.50;0.25;;;;;6.30;99.11;98666.78;5075265;28;45239;-61
2021/12/10 08:57:38;;;;;;;;;4.00;1.00;;;;;6.31;99.28;98672.84;5075918;27;45257;-61
2021/12/10 09:00:06;;;;;;;;;2.00;1.00;;;;;6.28;99.34;98676.47;5076135;28;46383;-61
2021/12/10 09:02:31;;;;;;;;;1.00;1.00;;;;;6.34;100.00;98683.97;5077258;27;45438;-62
2021/12/10 09:04:58;;;;;;;;;1.25;0.50;;;;;6.35;99.55;98684.81;5077798;27;45418;-60
2021/12/10 09:07:23;;;;;;;;;2.00;0.50;;;;;6.36;99.75;98696.94;5076287;27;45559;-60
2021/12/10 09:09:49;;;;;;;;;2.25;1.00;;;;;6.32;99.46;98706.72;5075535;27;46430;-58
2021/12/10 09:12:22;;;;;;;;;2.75;1.25;;;;;6.35;98.54;98700.47;5075669;27;44820;-62
2021/12/10 09:14:50;;;;;;;;;1.00;1.00;;;;;6.34;98.18;98704.00;5075499;27;45438;-61
2021/12/10 09:17:21;;;;;;;;;3.00;1.00;;;;;6.33;98.95;98710.16;5075295;27;45219;-59
2021/12/10 09:19:49;;;;;;;;;1.50;1.00;;;;;6.36;99.33;98729.13;5075198;27;46358;-62
2021/12/10 09:22:14;;;;;;;;;3.25;1.25;;;;;6.34;99.39;98722.28;5075599;27;45315;-61
2021/12/10 09:24:41;;;;;;;;;5.75;0.75;;;;;6.29;98.30;98738.22;5080424;27;45246;-61
2021/12/10 09:27:09;;;;;;;;;2.50;1.25;;;;;6.34;99.94;98743.19;5075662;27;45282;-62
2021/12/10 09:29:37;;;;;;;;;3.00;1.00;;;;;6.36;99.57;98733.50;5075317;27;46201;-60
2021/12/10 09:32:06;;;;;;;;;3.50;2.00;;;;;6.39;100.00;98739.41;5076485;27;45208;-61
2021/12/10 09:34:31;;;;;;;;;2.25;2.25;;;;;6.39;100.00;98749.03;5075604;28;45291;-60
2021/12/10 09:36:57;;;;;;;;;4.50;1.50;;;;;6.43;100.00;98745.34;5074624;27;45616;-64
2021/12/10 09:39:23;;;;;;;;;3.00;2.00;;;;;6.46;100.00;98755.63;5075555;27;45981;-62
2021/12/10 09:41:50;;;;;;;;;3.75;2.25;;;;;6.51;100.00;98760.59;5075731;27;45378;-61
2021/12/10 09:44:17;;;;;;;;;2.75;2.75;;;;;6.55;100.00;98772.56;5076574;27;45759;-62
2021/12/10 09:46:45;;;;;;;;;4.00;1.75;;;;;6.53;99.99;98775.28;5075788;27;45351;-60
2021/12/10 09:49:12;;;;;;;;;4.00;2.50;;;;;6.55;99.75;98777.78;5075509;27;46153;-60
2021/12/10 09:51:43;;;;;;;;;2.75;2.50;;;;;6.62;100.00;98783.53;5077701;27;45607;-61
2021/12/10 09:54:13;;;;;;;;;3.25;0.75;;;;;6.68;100.00;98788.44;5073326;27;45414;-63
2021/12/10 09:56:42;;;;;;;;;4.25;2.25;;;;;6.81;100.00;98791.22;5075210;27;45401;-62
2021/12/10 09:59:08;;;;;;;;;9.50;3.00;;;;;6.82;98.90;98782.47;5075069;28;45533;-60
2021/12/10 10:01:42;;;;;;;;;7.25;3.00;;;;;6.96;99.01;98800.91;5074691;27;45366;-63
2021/12/10 10:04:10;;;;;;;;;4.25;3.00;;;;;7.04;98.45;98797.84;5076273;27;45769;-59
2021/12/10 10:06:44;;;;;;;;;5.00;3.00;;;;;7.13;98.90;98799.13;5078581;27;45403;-59
2021/12/10 10:09:11;;;;;;;;;7.50;5.50;;;;;7.20;98.61;98802.22;5080357;27;46171;-58
2021/12/10 10:11:37;;;;;;;;;5.50;3.75;;;;;7.20;97.26;98805.72;5079356;27;45288;-59
2021/12/10 10:14:03;;;;;;;;;5.25;3.50;;;;;7.17;96.53;98811.09;5078450;27;45491;-58
2021/12/10 10:16:30;;;;;;;;;5.50;4.75;;;;;7.06;95.07;98827.38;5078991;27;45565;-60
2021/12/10 10:18:56;;;;;;;;;5.75;2.50;;;;;6.99;97.03;98824.25;5078038;27;46030;-61
2021/12/10 10:21:31;;;;;;;;;7.25;3.50;;;;;7.00;97.04;98843.38;5078094;27;45471;-61
2021/12/10 10:23:57;;;;;;;;;1.00;1.00;;;;;6.94;94.69;98828.03;5078070;28;45418;-60
2021/12/10 10:26:31;;;;;;;;;4.00;2.00;;;;;6.75;92.02;98844.69;5078248;27;45477;-62
2021/12/10 10:28:59;;;;;;;;;4.25;2.00;;;;;6.58;91.16;98849.03;5077517;27;47121;-60
2021/12/10 10:31:25;;;;;;;;;2.25;2.00;;;;;6.52;93.47;98851.09;5077705;27;45325;-64
2021/12/10 10:33:54;;;;;;;;;6.50;1.25;;;;;6.46;94.77;98854.00;5076466;27;45385;-64
2021/12/10 10:36:23;;;;;;;;;6.00;3.00;;;;;6.57;93.13;98862.16;5078442;27;45393;-63
2021/12/10 10:39:10;;;;;;;;;6.50;2.00;;;;;6.62;94.28;98856.69;5077703;27;45449;-65
2021/12/10 10:41:37;;;;;;;;;2.75;2.75;;;;;6.70;94.96;98867.59;5077909;27;45304;-61
2021/12/10 10:44:04;;;;;;;;;3.25;3.25;;;;;6.78;93.71;98865.44;5078456;27;45420;-63
2021/12/10 10:46:30;;;;;;;;;3.00;2.50;;;;;6.87;94.73;98879.78;5077963;27;45507;-61
2021/12/10 10:48:56;;;;;;;;;7.75;3.50;;;;;6.99;93.08;98868.69;5077326;27;46152;-58
2021/12/10 10:51:40;;;;;;;;;11.75;9.00;;;;;7.07;92.75;98867.44;5078095;27;45664;-60
2021/12/10 10:54:09;;;;;;;;;4.00;4.00;;;;;7.19;91.26;98868.53;5078352;27;45430;-61
2021/12/10 10:56:44;;;;;;;;;7.50;4.00;;;;;7.23;91.24;98878.75;5081471;27;45936;-61
2021/12/10 10:59:22;;;;;;;;;6.00;3.00;;;;;7.18;90.58;98870.31;5077442;27;45208;-63
2021/12/10 11:01:58;;;;;;;;;7.50;4.75;;;;;7.22;91.15;98881.44;5077604;27;45522;-63
2021/12/10 11:04:31;;;;;;;;;3.75;3.75;;;;;7.32;91.82;98887.88;5076971;27;45378;-61
2021/12/10 11:07:09;;;;;;;;;3.00;1.00;;;;;7.49;86.69;98875.69;5077609;27;45274;-57
2021/12/10 11:09:47;;;;;;;;;3.50;2.25;;;;;7.55;87.83;98893.66;5077299;27;45943;-64
2021/12/10 11:12:20;;;;;;;;;4.00;3.75;;;;;7.52;87.49;98884.19;5076944;27;45446;-60
2021/12/10 11:14:51;;;;;;;;;6.25;3.00;;;;;7.43;84.86;98885.53;5075221;27;45401;-62
2021/12/10 11:17:28;;;;;;;;;4.25;3.00;;;;;7.41;87.09;98908.28;5078040;27;45456;-62
2021/12/10 11:20:23;;;;;;;;;7.25;4.50;;;;;7.41;86.68;98912.69;5078227;27;46260;-61
2021/12/10 11:22:56;;;;;;;;;5.25;2.00;;;;;7.38;84.97;98918.09;5076957;27;45371;-62
2021/12/10 11:25:27;;;;;;;;;5.25;3.50;;;;;7.40;87.08;98926.72;5077674;27;45365;-60
2021/12/10 11:28:05;;;;;;;;;5.00;3.75;;;;;7.53;87.28;98937.38;5078183;27;45256;-59
2021/12/10 11:30:30;;;;;;;;;4.00;3.50;;;;;7.59;85.03;98910.88;5077798;27;46541;-60
2021/12/10 11:33:01;;;;;;;;;1.75;1.00;;;;;7.69;82.02;98925.13;5075529;28;45320;-62
2021/12/10 11:35:34;;;;;;;;;3.75;3.75;;;;;7.70;82.91;98929.44;5077266;27;45350;-62
2021/12/10 11:38:24;;;;;;;;;2.75;2.00;;;;;7.72;81.96;98927.59;5077578;27;45320;-60
2021/12/10 11:40:52;;;;;;;;;9.50;2.25;;;;;7.71;82.44;98944.22;5076442;27;46341;-64
2021/12/10 11:44:06;;;;;;;;;6.75;3.25;;;;;7.65;83.62;98947.16;5080782;27;45379;-63
2021/12/10 11:49:32;;;;;;;;;7.00;4.25;;;;;7.75;84.14;98945.75;5077477;27;45374;-63
2021/12/10 11:51:59;;;;;;;;;13.00;7.00;;;;;7.80;85.01;98947.25;5077934;27;47329;-64